createdAt,value
2024-03-16T00:02:49.274Z,0.60
2024-03-16T00:05:40.990Z,0.70
2024-03-16T00:08:32.438Z,0.70
2024-03-16T00:11:24.003Z,0.60
2024-03-16T00:14:15.600Z,0.90
2024-03-16T00:17:06.843Z,0.70
2024-03-16T00:19:57.964Z,0.60
2024-03-16T00:22:49.367Z,0.90
2024-03-16T00:25:41.297Z,0.70
2024-03-16T00:28:34.201Z,0.80
2024-03-16T00:31:25.343Z,0.90
2024-03-16T00:34:16.556Z,0.90
2024-03-16T00:37:08.490Z,0.70
2024-03-16T00:39:59.590Z,0.70
2024-03-16T00:42:50.776Z,0.80
2024-03-16T00:45:42.328Z,0.90
2024-03-16T00:48:33.529Z,0.80
2024-03-16T00:51:24.797Z,1.00
2024-03-16T00:54:16.140Z,0.80
2024-03-16T00:57:07.499Z,1.00
2024-03-16T00:59:58.615Z,1.10
2024-03-16T01:02:49.776Z,0.60
2024-03-16T01:05:40.907Z,1.10
2024-03-16T01:08:32.100Z,0.90
2024-03-16T01:11:24.750Z,0.70
2024-03-16T01:14:17.903Z,0.80
2024-03-16T01:17:09.470Z,1.00
2024-03-16T01:20:00.593Z,1.10
2024-03-16T01:22:52.074Z,0.90
2024-03-16T01:25:43.312Z,0.90
2024-03-16T01:28:34.867Z,1.00
2024-03-16T01:31:26.318Z,0.80
2024-03-16T01:34:17.609Z,0.70
2024-03-16T01:37:11.747Z,1.00
2024-03-16T01:40:02.939Z,0.70
2024-03-16T01:42:55.701Z,0.80
2024-03-16T01:45:47.113Z,0.70
2024-03-16T01:48:38.342Z,1.00
2024-03-16T01:51:29.824Z,1.00
2024-03-16T01:54:20.944Z,1.00
2024-03-16T01:57:12.490Z,1.10
2024-03-16T02:00:05.771Z,1.10
2024-03-16T02:02:57.130Z,1.10
2024-03-16T02:05:48.294Z,1.00
2024-03-16T02:08:39.707Z,1.20
2024-03-16T02:11:30.856Z,1.20
2024-03-16T02:14:22.113Z,0.90
2024-03-16T02:17:15.426Z,1.00
2024-03-16T02:20:15.127Z,1.10
2024-03-16T02:23:08.527Z,1.00
2024-03-16T02:26:01.552Z,1.20
2024-03-16T02:28:52.763Z,1.30
2024-03-16T02:31:44.585Z,1.10
2024-03-16T02:34:36.976Z,0.90
2024-03-16T02:37:28.061Z,1.00
2024-03-16T02:40:19.341Z,1.20
2024-03-16T02:43:11.450Z,1.10
2024-03-16T02:46:03.488Z,1.20
2024-03-16T02:48:54.722Z,1.30
2024-03-16T02:51:45.948Z,1.10
2024-03-16T02:54:37.282Z,1.00
2024-03-16T02:57:28.445Z,1.10
2024-03-16T03:00:20.056Z,1.10
2024-03-16T03:03:13.028Z,1.10
2024-03-16T03:06:04.907Z,0.90
2024-03-16T03:08:56.031Z,1.10
2024-03-16T03:11:47.386Z,1.20
2024-03-16T03:14:38.698Z,1.20
2024-03-16T03:17:29.862Z,1.30
2024-03-16T03:20:23.417Z,1.10
2024-03-16T03:23:16.760Z,1.10
2024-03-16T03:26:09.130Z,1.30
2024-03-16T03:29:01.392Z,1.00
2024-03-16T03:31:52.472Z,1.00
2024-03-16T03:34:43.603Z,1.00
2024-03-16T03:37:35.087Z,0.50
2024-03-16T03:40:26.729Z,1.00
2024-03-16T03:43:20.634Z,0.90
2024-03-16T03:46:19.836Z,0.90
2024-03-16T03:49:15.780Z,1.00
2024-03-16T03:52:07.601Z,0.90
2024-03-16T03:54:58.961Z,0.90
2024-03-16T03:57:51.841Z,0.70
2024-03-16T04:00:46.127Z,0.70
2024-03-16T04:03:38.519Z,0.50
2024-03-16T04:06:30.205Z,0.80
2024-03-16T04:09:21.300Z,0.30
2024-03-16T04:12:13.787Z,0.60
2024-03-16T04:15:05.671Z,0.70
2024-03-16T04:17:57.814Z,0.60
2024-03-16T04:20:49.028Z,0.60
2024-03-16T04:23:40.195Z,0.50
2024-03-16T04:26:31.361Z,0.70
2024-03-16T04:29:25.244Z,0.50
2024-03-16T04:32:16.401Z,0.50
2024-03-16T04:35:09.617Z,0.50
2024-03-16T04:38:00.708Z,0.70
2024-03-16T04:40:51.919Z,0.70
2024-03-16T04:43:46.017Z,0.70
2024-03-16T04:46:37.179Z,0.70
2024-03-16T04:49:28.222Z,0.60
2024-03-16T04:52:19.349Z,0.50
2024-03-16T04:55:11.507Z,0.70
2024-03-16T04:58:07.480Z,0.70
2024-03-16T05:03:51.037Z,0.60
2024-03-16T05:06:42.412Z,0.70
2024-03-16T05:09:33.726Z,0.60
2024-03-16T05:12:24.927Z,0.80
2024-03-16T05:15:16.334Z,1.00
2024-03-16T05:18:08.451Z,0.70
2024-03-16T05:21:00.176Z,0.50
2024-03-16T05:23:51.447Z,0.80
2024-03-16T05:26:42.453Z,0.60
2024-03-16T05:29:35.697Z,0.50
2024-03-16T05:32:26.804Z,0.70
2024-03-16T05:35:18.720Z,0.80
2024-03-16T05:38:09.915Z,0.70
2024-03-16T05:41:00.995Z,0.30
2024-03-16T05:43:54.112Z,0.70
2024-03-16T05:46:45.429Z,0.80
2024-03-16T05:49:37.081Z,1.00
2024-03-16T05:52:28.234Z,0.80
2024-03-16T05:55:19.471Z,0.60
2024-03-16T05:58:10.877Z,0.90
2024-03-16T06:01:05.155Z,1.00
2024-03-16T06:03:56.689Z,1.40
2024-03-16T06:06:48.294Z,1.30
2024-03-16T06:09:39.521Z,1.70
2024-03-16T06:12:32.095Z,1.80
2024-03-16T06:15:23.407Z,1.70
2024-03-16T06:18:15.247Z,1.80
2024-03-16T06:21:09.319Z,1.90
2024-03-16T06:24:00.506Z,1.60
2024-03-16T06:26:55.722Z,1.90
2024-03-16T06:29:52.820Z,1.70
2024-03-16T06:33:08.607Z,1.80
2024-03-16T06:35:59.915Z,1.90
2024-03-16T06:38:51.272Z,2.10
2024-03-16T06:41:44.621Z,1.60
2024-03-16T06:44:35.788Z,1.90
2024-03-16T06:47:26.951Z,2.20
2024-03-16T06:50:18.513Z,2.20
2024-03-16T06:53:09.619Z,2.40
2024-03-16T06:56:00.832Z,1.90
2024-03-16T06:58:52.224Z,2.10
2024-03-16T07:01:44.831Z,2.10
2024-03-16T07:04:36.000Z,2.10
2024-03-16T07:07:27.150Z,1.80
2024-03-16T07:10:18.508Z,1.80
2024-03-16T07:13:09.885Z,1.90
2024-03-16T07:16:01.211Z,2.10
2024-03-16T07:18:52.995Z,2.10
2024-03-16T07:21:44.340Z,2.00
2024-03-16T07:24:35.983Z,2.10
2024-03-16T07:27:27.363Z,1.80
2024-03-16T07:30:19.961Z,2.00
2024-03-16T07:33:12.755Z,2.00
2024-03-16T07:36:05.088Z,1.80
2024-03-16T07:38:57.488Z,1.70
2024-03-16T07:41:53.064Z,1.80
2024-03-16T07:44:46.454Z,2.00
2024-03-16T07:47:38.030Z,2.20
2024-03-16T07:50:29.474Z,2.00
2024-03-16T07:53:20.729Z,2.10
2024-03-16T07:56:12.334Z,1.80
2024-03-16T07:59:03.552Z,1.90
2024-03-16T08:01:54.796Z,1.80
2024-03-16T08:04:48.169Z,1.90
2024-03-16T08:07:40.156Z,1.70
2024-03-16T08:10:31.384Z,1.50
2024-03-16T08:13:22.762Z,1.90
2024-03-16T08:16:14.095Z,1.90
2024-03-16T08:19:06.329Z,1.60
2024-03-16T08:21:57.570Z,1.80
2024-03-16T08:24:49.284Z,1.80
2024-03-16T08:27:41.071Z,1.70
2024-03-16T08:30:32.924Z,1.80
2024-03-16T08:33:25.292Z,1.80
2024-03-16T08:36:16.462Z,1.70
2024-03-16T08:39:08.984Z,1.50
2024-03-16T08:42:02.426Z,1.60
2024-03-16T08:44:53.735Z,1.70
2024-03-16T08:47:45.069Z,1.70
2024-03-16T08:50:36.928Z,1.60
2024-03-16T08:53:28.263Z,1.40
2024-03-16T08:56:19.456Z,1.80
2024-03-16T08:59:10.631Z,1.60
2024-03-16T09:02:01.947Z,1.60
2024-03-16T09:04:53.566Z,1.30
2024-03-16T09:07:44.734Z,2.10
2024-03-16T09:10:37.258Z,1.80
2024-03-16T09:13:30.661Z,1.60
2024-03-16T09:16:21.922Z,1.70
2024-03-16T09:19:13.402Z,1.90
2024-03-16T09:22:04.992Z,1.60
2024-03-16T09:24:57.133Z,1.60
2024-03-16T09:27:48.417Z,1.90
2024-03-16T09:30:40.516Z,1.60
2024-03-16T09:33:32.825Z,1.60
2024-03-16T09:36:24.042Z,1.50
2024-03-16T09:39:16.870Z,1.50
2024-03-16T09:42:10.561Z,1.40
2024-03-16T09:45:07.491Z,1.50
2024-03-16T09:47:59.726Z,1.40
2024-03-16T09:50:53.342Z,1.50
2024-03-16T09:53:44.645Z,1.40
2024-03-16T09:56:35.984Z,1.70
2024-03-16T09:59:31.060Z,1.30
2024-03-16T10:02:24.510Z,1.50
2024-03-16T10:05:18.211Z,1.30
2024-03-16T10:08:09.905Z,1.60
2024-03-16T10:11:18.316Z,1.40
2024-03-16T10:14:12.199Z,1.40
2024-03-16T10:17:04.646Z,1.40
2024-03-16T10:19:55.800Z,1.30
2024-03-16T10:22:47.853Z,1.10
2024-03-16T10:25:39.679Z,1.40
2024-03-16T10:28:30.856Z,1.20
2024-03-16T10:31:23.277Z,1.30
2024-03-16T10:34:15.091Z,1.30
2024-03-16T10:37:07.886Z,1.40
2024-03-16T10:39:59.329Z,1.30
2024-03-16T10:42:52.229Z,1.10
2024-03-16T10:45:46.437Z,1.10
2024-03-16T10:48:37.888Z,1.40
2024-03-16T10:51:29.184Z,1.30
2024-03-16T10:54:20.372Z,0.90
2024-03-16T10:57:11.507Z,1.10
2024-03-16T11:00:03.382Z,1.20
2024-03-16T11:03:08.436Z,1.10
2024-03-16T11:06:10.763Z,1.10
2024-03-16T11:09:08.269Z,1.60
2024-03-16T11:12:01.751Z,0.80
2024-03-16T11:14:53.500Z,1.00
2024-03-16T11:17:44.697Z,0.80
2024-03-16T11:20:43.402Z,0.80
2024-03-16T11:23:34.919Z,1.00
2024-03-16T11:26:39.980Z,0.70
2024-03-16T11:29:31.281Z,1.00
2024-03-16T11:32:22.592Z,1.00
2024-03-16T11:35:18.025Z,1.00
2024-03-16T11:38:11.570Z,0.70
2024-03-16T11:41:03.504Z,0.90
2024-03-16T11:43:54.645Z,1.00
2024-03-16T11:46:47.675Z,0.70
2024-03-16T11:49:39.033Z,0.90
2024-03-16T11:52:30.229Z,0.60
2024-03-16T11:55:24.314Z,0.60
2024-03-16T11:58:15.515Z,0.60
2024-03-16T12:01:09.943Z,1.00
2024-03-16T12:04:01.268Z,1.10
2024-03-16T12:06:58.041Z,1.20
2024-03-16T12:09:49.689Z,0.60
2024-03-16T12:12:40.904Z,0.90
2024-03-16T12:15:33.928Z,0.60
2024-03-16T12:18:27.737Z,0.60
2024-03-16T12:21:19.558Z,0.70
2024-03-16T12:24:11.463Z,0.50
2024-03-16T12:27:02.993Z,0.50
2024-03-16T12:29:54.177Z,0.40
2024-03-16T12:32:45.742Z,0.50
2024-03-16T12:35:36.984Z,0.60
2024-03-16T12:38:28.192Z,0.80
2024-03-16T12:41:20.149Z,0.60
2024-03-16T12:44:11.294Z,0.90
2024-03-16T12:47:02.533Z,0.80
2024-03-16T12:49:53.672Z,1.10
2024-03-16T12:52:44.828Z,1.10
2024-03-16T12:55:36.051Z,1.20
2024-03-16T12:58:27.775Z,1.20
2024-03-16T13:01:20.818Z,1.10
2024-03-16T13:04:11.951Z,1.10
2024-03-16T13:07:04.409Z,1.20
2024-03-16T13:09:55.879Z,1.00
2024-03-16T13:12:47.057Z,1.20
2024-03-16T13:15:38.827Z,1.20
2024-03-16T13:18:31.490Z,1.00
2024-03-16T13:21:22.724Z,1.00
2024-03-16T13:24:14.066Z,1.00
2024-03-16T13:27:06.216Z,0.70
2024-03-16T13:29:57.579Z,0.70
2024-03-16T13:32:48.764Z,0.80
2024-03-16T13:35:42.123Z,1.00
2024-03-16T13:38:33.382Z,0.40
2024-03-16T13:41:24.622Z,0.90
2024-03-16T13:44:15.828Z,0.90
2024-03-16T13:47:07.530Z,1.10
2024-03-16T13:49:58.879Z,0.90
2024-03-16T13:52:50.018Z,1.00
2024-03-16T13:55:41.835Z,0.90
2024-03-16T13:58:33.033Z,0.80
2024-03-16T14:01:25.323Z,1.00
2024-03-16T14:04:18.058Z,0.70
2024-03-16T14:07:09.417Z,1.10
2024-03-16T14:10:02.078Z,1.10
2024-03-16T14:12:57.503Z,1.20
2024-03-16T14:15:49.060Z,0.80
2024-03-16T14:18:40.293Z,0.90
2024-03-16T14:21:31.629Z,0.90
2024-03-16T14:24:23.312Z,1.20
2024-03-16T14:27:14.801Z,0.90
2024-03-16T14:30:10.299Z,1.00
2024-03-16T14:33:02.397Z,0.50
2024-03-16T14:35:54.092Z,0.70
2024-03-16T14:38:45.308Z,0.80
2024-03-16T14:41:37.248Z,0.90
2024-03-16T14:44:29.063Z,1.00
2024-03-16T14:47:21.259Z,0.90
2024-03-16T14:50:14.279Z,0.70
2024-03-16T14:53:07.110Z,0.70
2024-03-16T14:55:58.366Z,0.80
2024-03-16T14:58:49.644Z,0.80
2024-03-16T15:01:40.830Z,0.90
2024-03-16T15:04:32.388Z,0.60
2024-03-16T15:07:23.615Z,0.90
2024-03-16T15:10:15.126Z,0.80
2024-03-16T15:13:06.910Z,1.00
2024-03-16T15:15:58.420Z,1.00
2024-03-16T15:18:50.276Z,1.30
2024-03-16T15:21:41.622Z,1.10
2024-03-16T15:24:34.927Z,0.80
2024-03-16T15:27:43.346Z,1.00
2024-03-16T15:30:35.681Z,1.00
2024-03-16T15:33:28.657Z,1.00
2024-03-16T15:36:19.901Z,1.40
2024-03-16T15:39:13.398Z,1.00
2024-03-16T15:42:05.332Z,1.00
2024-03-16T15:44:58.702Z,0.90
2024-03-16T15:47:51.222Z,0.90
2024-03-16T15:50:42.393Z,0.80
2024-03-16T15:53:33.545Z,0.70
2024-03-16T15:56:24.773Z,0.90
2024-03-16T15:59:16.013Z,0.80
2024-03-16T16:02:08.355Z,0.60
2024-03-16T16:05:00.100Z,0.90
2024-03-16T16:07:51.917Z,0.80
2024-03-16T16:10:45.306Z,0.90
2024-03-16T16:13:36.675Z,1.10
2024-03-16T16:16:27.857Z,1.20
2024-03-16T16:19:19.176Z,1.40
2024-03-16T16:22:10.495Z,1.30
2024-03-16T16:25:01.967Z,1.20
2024-03-16T16:27:53.281Z,1.30
2024-03-16T16:30:46.821Z,1.30
2024-03-16T16:33:38.345Z,0.90
2024-03-16T16:36:29.531Z,1.10
2024-03-16T16:39:20.914Z,1.00
2024-03-16T16:42:13.276Z,1.10
2024-03-16T16:45:05.209Z,1.10
2024-03-16T16:47:56.773Z,0.90
2024-03-16T16:50:47.912Z,0.80
2024-03-16T16:53:39.038Z,1.20
2024-03-16T16:56:30.156Z,1.10
2024-03-16T16:59:21.476Z,1.10
2024-03-16T17:02:12.693Z,1.20
2024-03-16T17:05:03.994Z,1.20
2024-03-16T17:07:55.343Z,2.00
2024-03-16T17:10:46.592Z,1.70
2024-03-16T17:13:40.306Z,1.70
2024-03-16T17:16:31.938Z,1.70
2024-03-16T17:19:24.630Z,1.70
2024-03-16T17:22:16.139Z,1.50
2024-03-16T17:25:08.345Z,1.60
2024-03-16T17:27:59.578Z,1.90
2024-03-16T17:30:52.859Z,2.30
2024-03-16T17:33:43.936Z,4.50
2024-03-16T17:36:36.130Z,3.60
2024-03-16T17:39:27.857Z,2.70
2024-03-16T17:42:19.335Z,2.60
2024-03-16T17:45:11.837Z,2.30
2024-03-16T17:48:03.100Z,2.60
2024-03-16T17:50:54.270Z,2.70
2024-03-16T17:53:48.011Z,2.30
2024-03-16T17:56:39.155Z,2.10
2024-03-16T17:59:30.367Z,2.10
2024-03-16T18:02:21.540Z,1.90
2024-03-16T18:05:12.900Z,1.60
2024-03-16T18:08:04.421Z,1.60
2024-03-16T18:10:55.611Z,1.70
2024-03-16T18:13:46.971Z,2.70
2024-03-16T18:16:43.939Z,7.00
2024-03-16T18:19:35.804Z,5.00
2024-03-16T18:22:27.359Z,5.60
2024-03-16T18:25:19.045Z,2.80
2024-03-16T18:28:12.868Z,2.30
2024-03-16T18:31:06.842Z,2.30
2024-03-16T18:33:59.575Z,2.20
2024-03-16T18:36:50.884Z,2.00
2024-03-16T18:39:44.519Z,2.70
2024-03-16T18:42:35.908Z,3.00
2024-03-16T18:45:27.359Z,4.70
2024-03-16T18:48:19.265Z,4.40
2024-03-16T18:51:10.940Z,4.90
2024-03-16T18:54:02.277Z,5.40
2024-03-16T18:56:53.977Z,5.50
2024-03-16T18:59:45.281Z,5.00
2024-03-16T19:02:41.847Z,4.90
2024-03-16T19:05:40.308Z,4.80
2024-03-16T19:08:31.798Z,4.50
2024-03-16T19:11:25.129Z,5.50
2024-03-16T19:14:16.987Z,5.40
2024-03-16T19:17:08.277Z,4.10
2024-03-16T19:19:59.622Z,3.60
2024-03-16T19:22:50.901Z,2.80
2024-03-16T19:25:42.271Z,2.70
2024-03-16T19:28:33.973Z,2.80
2024-03-16T19:31:25.290Z,2.30
2024-03-16T19:34:16.700Z,2.00
2024-03-16T19:37:10.906Z,2.10
2024-03-16T19:40:02.202Z,2.00
2024-03-16T19:42:55.550Z,3.40
2024-03-16T19:45:46.900Z,2.90
2024-03-16T19:48:38.110Z,2.80
2024-03-16T19:51:29.355Z,2.40
2024-03-16T19:54:21.394Z,2.60
2024-03-16T19:57:12.645Z,2.50
2024-03-16T20:00:13.656Z,2.40
2024-03-16T20:03:05.960Z,2.10
2024-03-16T20:05:58.052Z,2.10
2024-03-16T20:08:49.329Z,2.30
2024-03-16T20:11:40.829Z,2.10
2024-03-16T20:14:32.041Z,2.20
2024-03-16T20:17:23.246Z,2.90
2024-03-16T20:20:16.735Z,2.80
2024-03-16T20:23:08.782Z,3.10
2024-03-16T20:26:00.265Z,2.30
2024-03-16T20:28:51.410Z,3.30
2024-03-16T20:31:42.573Z,3.20
2024-03-16T20:34:34.247Z,3.00
2024-03-16T20:37:25.434Z,2.80
2024-03-16T20:40:16.888Z,2.80
2024-03-16T20:43:10.345Z,2.60
2024-03-16T20:46:03.775Z,2.70
2024-03-16T20:48:57.217Z,2.90
2024-03-16T20:51:48.424Z,3.30
2024-03-16T20:54:39.672Z,3.20
2024-03-16T20:57:32.043Z,3.40
2024-03-16T21:00:25.136Z,2.50
2024-03-16T21:03:17.065Z,2.60
2024-03-16T21:06:09.680Z,3.70
2024-03-16T21:09:00.947Z,6.20
2024-03-16T21:11:52.301Z,3.80
2024-03-16T21:14:45.094Z,3.50
2024-03-16T21:17:36.676Z,3.40
2024-03-16T21:20:28.115Z,3.80
2024-03-16T21:23:19.297Z,3.60
2024-03-16T21:26:11.282Z,3.40
2024-03-16T21:29:02.685Z,3.00
2024-03-16T21:31:53.836Z,3.20
2024-03-16T21:34:45.231Z,2.70
2024-03-16T21:37:37.192Z,2.80
2024-03-16T21:40:29.270Z,3.00
2024-03-16T21:43:22.680Z,3.60
2024-03-16T21:46:14.027Z,3.80
2024-03-16T21:49:05.219Z,3.10
2024-03-16T21:51:56.373Z,3.70
2024-03-16T21:54:47.715Z,3.90
2024-03-16T21:57:40.768Z,3.30
2024-03-16T22:00:32.062Z,3.70
2024-03-16T22:03:24.221Z,3.40
2024-03-16T22:06:15.429Z,4.40
2024-03-16T22:09:10.201Z,4.10
2024-03-16T22:12:01.414Z,3.70
2024-03-16T22:14:52.600Z,3.20
2024-03-16T22:17:43.823Z,4.10
2024-03-16T22:20:35.006Z,3.80
2024-03-16T22:23:26.200Z,4.80
2024-03-16T22:26:17.319Z,3.80
2024-03-16T22:29:08.835Z,3.40
2024-03-16T22:32:00.026Z,4.30
2024-03-16T22:34:51.272Z,3.20
2024-03-16T22:37:42.495Z,3.00
2024-03-16T22:40:33.708Z,3.10
2024-03-16T22:43:28.126Z,2.80
2024-03-16T22:46:19.704Z,2.90
2024-03-16T22:49:10.985Z,2.90
2024-03-16T22:52:02.280Z,3.50
2024-03-16T22:54:57.494Z,3.70
2024-03-16T23:00:40.813Z,3.50
2024-03-16T23:03:32.750Z,3.60
2024-03-16T23:06:24.492Z,3.50
2024-03-16T23:09:19.844Z,3.30
2024-03-16T23:12:12.516Z,3.00
2024-03-16T23:15:09.675Z,3.20
2024-03-16T23:18:01.521Z,2.70
2024-03-16T23:20:54.952Z,2.80
2024-03-16T23:23:46.606Z,2.90
2024-03-16T23:26:40.924Z,3.10
2024-03-16T23:29:32.560Z,3.80
2024-03-16T23:32:25.121Z,3.20
2024-03-16T23:35:18.142Z,3.10
2024-03-16T23:38:11.019Z,3.10
2024-03-16T23:41:05.922Z,4.00
2024-03-16T23:43:58.257Z,3.30
2024-03-16T23:46:49.539Z,4.60
2024-03-16T23:49:42.805Z,4.40
2024-03-16T23:52:34.760Z,4.30
2024-03-16T23:55:25.962Z,3.70
2024-03-16T23:58:17.198Z,3.60
